Time;durP1;ratioP1;P1;durP2;ratioP2;P2;SDS_P1;SDS_P2;PMS_P1;PMS_P2;Temp;Humidity;BMP_temperature;BMP_pressure;BME280_temperature;BME280_humidity;BME280_pressure;Samples;Min_cycle;Max_cycle;Signal;HPM_P1;HPM_P2
2022/11/22 00:00:19;;;;;;;3.88;3.67;;;;;;;5.67;100.00;98980.25;6073112;23;20030;-76
2022/11/22 00:02:45;;;;;;;3.40;3.30;;;;;;;5.76;100.00;98974.50;6046957;23;20089;-76
2022/11/22 00:05:12;;;;;;;3.65;3.45;;;;;;;5.39;100.00;98904.69;6073871;23;20174;-77
2022/11/22 00:07:39;;;;;;;3.45;3.35;;;;;;;5.94;100.00;98991.63;6059191;23;20652;-76
2022/11/22 00:10:07;;;;;;;3.47;3.38;;;;;;;5.73;100.00;98977.28;6076530;23;20025;-76
2022/11/22 00:12:34;;;;;;;4.55;4.18;;;;;;;5.68;100.00;98967.16;6065764;23;20465;-76
2022/11/22 00:15:01;;;;;;;4.28;3.72;;;;;;;5.85;100.00;98994.78;6072571;23;20121;-74
2022/11/22 00:17:27;;;;;;;3.38;3.17;;;;;;;5.85;100.00;98983.53;6060518;23;20107;-73
2022/11/22 00:19:53;;;;;;;3.92;3.63;;;;;;;5.62;100.00;98958.91;6061595;23;20455;-73
2022/11/22 00:22:20;;;;;;;3.40;3.30;;;;;;;5.12;100.00;98886.34;6085649;23;20101;-75
2022/11/22 00:24:47;;;;;;;5.57;3.80;;;;;;;4.00;100.00;98682.47;6056616;23;20024;-75
2022/11/22 00:27:14;;;;;;;3.60;3.40;;;;;;;5.76;100.00;98967.53;6063577;23;20120;-76
2022/11/22 00:29:40;;;;;;;3.40;3.30;;;;;;;5.55;100.00;98943.66;6067531;23;20046;-75
2022/11/22 00:32:06;;;;;;;3.60;3.42;;;;;;;4.90;100.00;98842.59;6058729;23;20376;-75
2022/11/22 00:34:33;;;;;;;3.40;3.30;;;;;;;5.36;100.00;98915.28;6072156;23;20018;-75
2022/11/22 00:36:59;;;;;;;3.90;3.70;;;;;;;5.39;100.00;98948.94;6057005;23;20100;-76
2022/11/22 00:39:26;;;;;;;4.15;3.85;;;;;;;5.39;100.00;98914.25;6042912;23;20021;-75
2022/11/22 00:41:53;;;;;;;4.43;4.03;;;;;;;5.74;100.00;98971.16;6039105;23;20044;-75
2022/11/22 00:44:19;;;;;;;3.80;3.60;;;;;;;3.96;100.00;98680.97;6064746;23;20496;-76
2022/11/22 00:46:46;;;;;;;3.90;3.70;;;;;;;5.36;100.00;98922.25;6047086;23;20169;-75
2022/11/22 00:49:12;;;;;;;3.30;3.20;;;;;;;5.23;100.00;98892.69;6067929;23;20033;-76
2022/11/22 00:51:39;;;;;;;3.72;3.58;;;;;;;5.42;100.00;98923.66;6059180;23;20080;-75
2022/11/22 00:54:06;;;;;;;3.40;3.30;;;;;;;5.74;100.00;98969.41;6073177;23;20087;-75
2022/11/22 00:56:32;;;;;;;4.18;3.97;;;;;;;5.76;100.00;98967.53;6063186;23;20030;-75
2022/11/22 00:58:59;;;;;;;3.50;3.40;;;;;;;5.75;100.00;98978.91;6076804;23;20055;-74
2022/11/22 01:01:25;;;;;;;3.50;3.40;;;;;;;5.77;100.00;98973.56;6070406;23;20398;-75
2022/11/22 01:03:52;;;;;;;3.65;3.47;;;;;;;5.58;100.00;98938.25;6063689;23;20057;-74
2022/11/22 01:06:18;;;;;;;3.72;3.53;;;;;;;5.43;100.00;98907.09;6037937;23;20030;-76
2022/11/22 01:08:46;;;;;;;3.25;3.15;;;;;;;5.78;100.00;98972.66;6027996;23;20144;-76
2022/11/22 01:11:15;;;;;;;3.35;3.25;;;;;;;5.43;100.00;98918.34;6064124;23;20028;-76
2022/11/22 01:13:42;;;;;;;3.97;3.80;;;;;;;5.62;100.00;98948.47;6062830;23;20040;-75
2022/11/22 01:16:10;;;;;;;4.03;3.83;;;;;;;5.81;100.00;98975.06;6061112;23;20038;-74
2022/11/22 01:18:36;;;;;;;3.50;3.40;;;;;;;5.79;100.00;98980.38;6060345;23;20030;-75
2022/11/22 01:21:04;;;;;;;3.50;3.40;;;;;;;4.98;100.00;98860.34;6032461;23;20396;-75
2022/11/22 01:23:32;;;;;;;3.55;3.35;;;;;;;5.10;100.00;98884.78;6076024;23;20036;-76
2022/11/22 01:25:58;;;;;;;3.88;3.67;;;;;;;5.59;100.00;98950.34;6058410;23;20037;-76
2022/11/22 01:28:25;;;;;;;6.95;4.10;;;;;;;5.69;100.00;98986.22;6069861;23;20068;-77
2022/11/22 01:30:53;;;;;;;3.50;3.40;;;;;;;5.60;100.00;98980.63;6031675;23;20320;-76
2022/11/22 01:33:19;;;;;;;3.72;3.63;;;;;;;5.57;100.00;98977.38;6017553;23;20026;-77
2022/11/22 01:35:46;;;;;;;3.80;3.50;;;;;;;4.73;100.00;98855.72;6053451;23;20011;-77
2022/11/22 01:38:12;;;;;;;3.40;3.30;;;;;;;5.09;100.00;98930.75;6044546;23;20471;-76
2022/11/22 01:40:39;;;;;;;4.45;4.07;;;;;;;5.36;100.00;98974.28;6025886;23;20261;-76
2022/11/22 01:43:16;;;;;;;3.70;3.55;;;;;;;5.28;100.00;98973.88;6062491;23;20112;-76
2022/11/22 01:45:48;;;;;;;3.78;3.58;;;;;;;5.18;100.00;98969.19;6066857;23;20096;-76
2022/11/22 01:48:37;;;;;;;4.68;4.47;;;;;;;4.74;100.00;98920.59;6036580;23;20035;-75
2022/11/22 01:51:12;;;;;;;3.85;3.65;;;;;;;5.09;100.00;98987.94;6072443;23;20037;-73
2022/11/22 01:53:39;;;;;;;3.83;3.63;;;;;;;5.11;100.00;98988.69;6058869;23;20010;-73
2022/11/22 01:56:13;;;;;;;4.18;3.97;;;;;;;5.16;100.00;98994.47;6047552;23;20030;-75
2022/11/22 01:58:43;;;;;;;3.53;3.42;;;;;;;5.23;100.00;99014.91;6066452;23;20029;-74
2022/11/22 02:01:10;;;;;;;4.03;3.80;;;;;;;4.77;100.00;98933.44;6066470;23;20023;-74
2022/11/22 02:03:40;;;;;;;3.50;3.35;;;;;;;5.24;100.00;99006.19;6059805;23;20018;-75
2022/11/22 02:06:07;;;;;;;4.05;3.85;;;;;;;4.74;100.00;98935.38;6061141;23;20030;-74
2022/11/22 02:08:51;;;;;;;4.00;3.80;;;;;;;4.78;100.00;98942.88;6056564;23;20466;-74
2022/11/22 02:11:20;;;;;;;3.63;3.47;;;;;;;5.04;100.00;99005.56;6069254;23;20030;-75
2022/11/22 02:13:49;;;;;;;3.60;3.40;;;;;;;4.22;100.00;98889.75;6058618;23;20017;-74
2022/11/22 02:16:15;;;;;;;3.30;3.20;;;;;;;4.78;100.00;98983.63;6063003;23;20037;-74
2022/11/22 02:18:42;;;;;;;3.80;3.60;;;;;;;4.68;100.00;98988.50;6047490;23;20442;-74
2022/11/22 02:21:09;;;;;;;3.92;3.72;;;;;;;4.06;100.00;98887.16;6054069;23;20018;-74
2022/11/22 02:23:41;;;;;;;3.60;3.50;;;;;;;4.72;100.00;99010.78;6056014;23;20456;-74
2022/11/22 02:26:08;;;;;;;;;;;;;;;4.70;100.00;99017.84;6071071;23;20085;-74
2022/11/22 02:28:37;;;;;;;3.58;3.45;;;;;;;3.86;100.00;98893.41;6062683;23;20649;-74
2022/11/22 02:31:04;;;;;;;3.30;3.20;;;;;;;4.32;100.00;98978.38;6063922;23;20089;-74
2022/11/22 02:33:30;;;;;;;4.15;3.85;;;;;;;3.94;100.00;98930.19;6057711;23;20033;-74
2022/11/22 02:35:57;;;;;;;4.25;3.90;;;;;;;3.19;100.00;98801.91;6051058;23;20087;-74
2022/11/22 02:38:28;;;;;;;3.20;3.10;;;;;;;4.50;100.00;99024.13;6073169;23;20015;-74
2022/11/22 02:41:05;;;;;;;3.15;3.05;;;;;;;4.06;100.00;98959.84;6073832;23;20105;-73
2022/11/22 02:43:36;;;;;;;3.50;3.40;;;;;;;4.23;100.00;99004.81;6060039;23;20043;-73
2022/11/22 02:46:04;;;;;;;3.45;3.35;;;;;;;4.38;100.00;99029.97;6071729;23;20029;-74
2022/11/22 02:48:30;;;;;;;3.35;3.25;;;;;;;4.06;100.00;98977.19;6044619;23;20034;-74
2022/11/22 02:50:57;;;;;;;4.03;3.72;;;;;;;3.52;100.00;98884.84;6032173;23;20023;-74
2022/11/22 02:53:24;;;;;;;3.20;3.10;;;;;;;3.89;100.00;98968.53;6063960;23;20014;-72
2022/11/22 02:55:50;;;;;;;3.70;3.50;;;;;;;3.95;100.00;98973.41;6059982;23;20033;-74
2022/11/22 02:58:16;;;;;;;3.30;3.20;;;;;;;3.91;100.00;98979.66;6053027;23;20026;-74
2022/11/22 03:00:43;;;;;;;3.30;3.20;;;;;;;3.44;100.00;98910.31;6072019;23;20092;-73
2022/11/22 03:03:09;;;;;;;4.13;3.72;;;;;;;4.22;100.00;99032.56;6055543;23;20251;-74
2022/11/22 03:05:36;;;;;;;3.38;3.28;;;;;;;3.90;100.00;98995.31;6039722;23;20167;-73
2022/11/22 03:08:02;;;;;;;3.30;3.20;;;;;;;4.12;100.00;99042.56;6078680;23;20010;-74
2022/11/22 03:10:28;;;;;;;3.30;3.20;;;;;;;3.45;100.00;98948.31;6064427;23;20026;-74
2022/11/22 03:12:56;;;;;;;3.30;3.20;;;;;;;3.83;100.00;99030.25;6052387;23;20529;-74
2022/11/22 03:15:23;;;;;;;3.10;3.00;;;;;;;3.95;100.00;99063.41;6051234;23;20033;-74
2022/11/22 03:17:55;;;;;;;3.20;3.10;;;;;;;3.30;100.00;98999.19;6060546;23;20025;-74
2022/11/22 03:20:22;;;;;;;3.10;3.00;;;;;;;3.88;100.00;99062.84;6078342;23;20108;-76
2022/11/22 03:22:48;;;;;;;4.85;4.65;;;;;;;3.44;100.00;99014.06;6057932;23;20027;-76
2022/11/22 03:25:15;;;;;;;3.28;3.17;;;;;;;3.64;100.00;99036.41;6063610;23;20037;-76
2022/11/22 03:27:41;;;;;;;3.30;3.20;;;;;;;3.10;100.00;98961.28;6041524;23;20026;-76
2022/11/22 03:30:08;;;;;;;3.25;3.15;;;;;;;3.19;100.00;98978.16;6043064;23;20027;-76
2022/11/22 03:32:34;;;;;;;3.33;3.22;;;;;;;3.72;100.00;99100.88;6050090;23;20030;-73
2022/11/22 03:35:01;;;;;;;3.83;3.63;;;;;;;3.47;100.00;99037.25;6068747;23;20029;-74
2022/11/22 03:37:27;;;;;;;3.20;3.10;;;;;;;2.16;100.00;98853.63;6061156;23;20094;-74
2022/11/22 03:39:53;;;;;;;3.33;3.22;;;;;;;2.62;100.00;98925.66;6032479;23;20034;-73
2022/11/22 03:42:20;;;;;;;4.05;3.83;;;;;;;3.56;100.00;99087.81;6069184;23;20170;-74
2022/11/22 03:44:47;;;;;;;3.30;3.20;;;;;;;3.25;100.00;99034.88;6063449;23;20354;-74
2022/11/22 03:47:13;;;;;;;3.20;3.10;;;;;;;3.36;100.00;99057.69;6074595;23;20014;-74
2022/11/22 03:49:41;;;;;;;3.35;3.17;;;;;;;3.33;100.00;99066.47;6041945;23;20038;-74
2022/11/22 03:52:07;;;;;;;3.63;3.47;;;;;;;3.40;100.00;99078.19;6075105;23;20033;-75
2022/11/22 03:54:33;;;;;;;3.20;3.10;;;;;;;2.83;100.00;98992.00;6069472;23;20034;-74
2022/11/22 03:57:00;;;;;;;3.90;3.70;;;;;;;3.49;100.00;99118.41;6065879;23;20030;-75
2022/11/22 03:59:26;;;;;;;3.63;3.33;;;;;;;3.49;100.00;99089.88;6061110;23;20049;-74
2022/11/22 04:01:53;;;;;;;3.20;3.10;;;;;;;2.76;100.00;98954.31;6062147;23;20097;-75
2022/11/22 04:04:20;;;;;;;3.67;3.38;;;;;;;3.02;100.00;98984.16;6054877;23;20221;-74
2022/11/22 04:06:46;;;;;;;3.17;3.08;;;;;;;3.23;100.00;99028.94;6071158;23;20022;-76
2022/11/22 04:09:13;;;;;;;3.20;3.00;;;;;;;3.43;100.00;99071.19;6072608;23;20273;-74
2022/11/22 04:11:39;;;;;;;3.80;3.60;;;;;;;3.19;100.00;99046.38;6033372;23;20364;-73
2022/11/22 04:16:50;;;;;;;6.45;3.40;;;;;;;3.06;100.00;99044.44;6069667;23;20464;-74
2022/11/22 04:19:17;;;;;;;3.47;3.38;;;;;;;2.98;100.00;99032.69;6054940;23;20535;-73
2022/11/22 04:21:43;;;;;;;3.17;3.08;;;;;;;3.29;100.00;99087.44;6032092;23;20010;-74
2022/11/22 04:26:56;;;;;;;3.20;3.10;;;;;;;2.28;100.00;98924.66;6059471;23;20409;-73
2022/11/22 04:29:23;;;;;;;3.15;3.05;;;;;;;3.16;100.00;99069.00;6077775;23;20115;-74
2022/11/22 04:34:36;;;;;;;3.60;3.40;;;;;;;3.16;100.00;99108.72;6070481;23;20084;-73
2022/11/22 04:37:03;;;;;;;3.05;2.95;;;;;;;3.10;100.00;99114.19;6058382;23;20026;-74
2022/11/22 04:39:30;;;;;;;3.00;2.90;;;;;;;2.37;100.00;99001.91;6076790;23;20061;-74
2022/11/22 04:44:42;;;;;;;3.85;3.55;;;;;;;2.13;100.00;98975.41;6078445;23;20109;-74
2022/11/22 04:47:57;;;;;;;3.13;3.03;;;;;;;2.52;100.00;99055.56;6016623;23;20132;-74
2022/11/22 04:50:02;;;;;;;3.08;2.97;;;;;;;2.31;100.00;99025.50;6070627;23;20074;-74
2022/11/22 04:55:13;;;;;;;3.50;3.40;;;;;;;1.88;100.00;98954.94;6063969;23;20512;-75
2022/11/22 04:57:40;;;;;;;3.70;3.50;;;;;;;2.37;100.00;99049.34;6045427;23;20179;-74
2022/11/22 05:00:07;;;;;;;3.33;3.22;;;;;;;2.46;100.00;99055.00;6052463;23;20058;-74
2022/11/22 05:02:33;;;;;;;3.53;3.25;;;;;;;2.75;100.00;99111.50;6066504;23;20092;-74
2022/11/22 05:05:00;;;;;;;3.30;3.20;;;;;;;1.57;100.00;98920.13;6068315;23;20794;-73
2022/11/22 05:07:26;;;;;;;3.08;2.97;;;;;;;2.48;100.00;99063.53;6032767;23;20081;-73
2022/11/22 05:09:53;;;;;;;2.97;2.88;;;;;;;2.47;100.00;99061.88;6051973;23;20264;-73
2022/11/22 05:12:19;;;;;;;3.17;3.08;;;;;;;2.09;100.00;99008.34;6069105;23;20342;-74
2022/11/22 05:14:45;;;;;;;3.40;3.25;;;;;;;2.53;100.00;99103.03;6061567;23;20512;-74
2022/11/22 05:17:12;;;;;;;3.30;3.20;;;;;;;2.35;100.00;99064.09;6058840;23;20433;-73
2022/11/22 05:19:39;;;;;;;3.20;3.10;;;;;;;2.18;100.00;99032.94;6042462;23;20076;-74
2022/11/22 05:22:11;;;;;;;3.20;3.10;;;;;;;1.49;100.00;98927.38;6065393;23;20022;-74
2022/11/22 05:24:37;;;;;;;3.50;3.30;;;;;;;2.46;100.00;99083.50;6063463;23;20029;-73
2022/11/22 05:27:04;;;;;;;3.00;2.90;;;;;;;2.07;100.00;99027.44;6055342;23;20101;-75
2022/11/22 05:29:30;;;;;;;3.30;3.10;;;;;;;1.84;100.00;98984.44;6048889;23;20018;-74
2022/11/22 05:31:57;;;;;;;3.20;3.10;;;;;;;2.39;100.00;99076.00;6017321;23;20061;-73
2022/11/22 05:34:23;;;;;;;3.50;3.28;;;;;;;1.73;100.00;98978.00;6076400;23;20022;-73
2022/11/22 05:36:50;;;;;;;3.50;3.30;;;;;;;1.76;100.00;98987.38;6050685;23;20027;-74
2022/11/22 05:39:16;;;;;;;3.20;3.10;;;;;;;2.27;100.00;99070.53;6044280;23;20034;-73
2022/11/22 05:41:54;;;;;;;3.00;2.90;;;;;;;2.35;100.00;99082.22;6065430;23;20026;-73
2022/11/22 05:44:22;;;;;;;2.85;2.75;;;;;;;2.66;100.00;99136.97;6072407;23;20026;-74
2022/11/22 05:46:49;;;;;;;5.72;4.07;;;;;;;2.45;100.00;99116.31;6042920;23;20100;-75
2022/11/22 05:49:15;;;;;;;3.20;3.10;;;;;;;2.42;100.00;99120.78;6065376;23;20030;-74
2022/11/22 05:51:41;;;;;;;3.10;3.00;;;;;;;2.55;100.00;99145.25;6060631;23;20010;-74
2022/11/22 05:54:08;;;;;;;3.15;3.03;;;;;;;2.23;100.00;99098.31;6058567;23;20573;-74
2022/11/22 05:56:34;;;;;;;3.22;3.13;;;;;;;2.16;100.00;99104.63;6058474;23;20031;-74
2022/11/22 05:59:00;;;;;;;3.90;3.67;;;;;;;2.08;100.00;99080.84;6064871;23;20402;-74
2022/11/22 06:01:27;;;;;;;3.20;3.00;;;;;;;0.81;100.00;98878.56;6057565;23;20182;-74
2022/11/22 06:03:53;;;;;;;3.17;2.97;;;;;;;2.07;100.00;99103.28;6071601;23;20038;-76
2022/11/22 06:06:20;;;;;;;3.20;3.10;;;;;;;2.42;100.00;99147.50;6058024;23;20022;-75
2022/11/22 06:08:46;;;;;;;3.90;3.70;;;;;;;2.10;100.00;99103.16;6042403;23;20022;-75
2022/11/22 06:11:22;;;;;;;2.92;2.83;;;;;;;1.19;100.00;98949.28;6067927;23;20026;-74
2022/11/22 06:13:57;;;;;;;3.42;3.28;;;;;;;2.46;100.00;99150.81;6045267;23;20118;-74
2022/11/22 06:16:25;;;;;;;3.00;2.90;;;;;;;2.26;100.00;99115.44;6064411;23;20039;-75
2022/11/22 06:18:55;;;;;;;3.00;2.90;;;;;;;1.53;100.00;99001.31;6061442;23;20018;-75
2022/11/22 06:21:24;;;;;;;3.63;3.42;;;;;;;2.28;100.00;99117.03;6043181;23;20221;-74
2022/11/22 06:23:52;;;;;;;2.97;2.88;;;;;;;2.01;100.00;99069.09;6032587;23;20073;-74
2022/11/22 06:26:20;;;;;;;4.22;3.80;;;;;;;2.50;100.00;99152.34;6053810;23;20452;-75
2022/11/22 06:28:47;;;;;;;3.55;3.25;;;;;;;1.82;100.00;99048.34;6069539;23;20030;-75
2022/11/22 06:31:13;;;;;;;3.40;3.13;;;;;;;2.53;100.00;99150.47;6068713;23;20021;-74
2022/11/22 06:33:41;;;;;;;3.30;3.20;;;;;;;2.51;100.00;99147.13;6063469;23;20017;-74
2022/11/22 06:36:13;;;;;;;3.40;3.30;;;;;;;2.52;100.00;99155.72;6081430;23;20030;-75
2022/11/22 06:38:41;;;;;;;3.10;3.00;;;;;;;2.51;100.00;99151.47;6062667;23;20057;-74
2022/11/22 06:41:10;;;;;;;3.45;3.35;;;;;;;2.53;100.00;99160.00;6073033;23;20033;-74
2022/11/22 06:43:39;;;;;;;3.20;3.10;;;;;;;2.34;100.00;99128.88;6058797;23;20011;-74
2022/11/22 06:46:14;;;;;;;3.33;3.22;;;;;;;2.28;100.00;99109.28;6070204;23;20087;-76
2022/11/22 06:48:42;;;;;;;3.30;3.20;;;;;;;2.03;100.00;99057.75;6040683;23;20026;-74
2022/11/22 06:51:14;;;;;;;3.38;3.28;;;;;;;1.87;100.00;99029.13;6027311;23;20030;-74
2022/11/22 06:53:41;;;;;;;3.70;3.50;;;;;;;2.73;100.00;99172.06;6045136;23;20509;-75
2022/11/22 06:56:18;;;;;;;3.17;3.08;;;;;;;2.49;100.00;99128.22;6056827;23;20452;-75
2022/11/22 06:58:47;;;;;;;3.00;2.90;;;;;;;2.66;100.00;99165.47;6035471;23;20462;-74
2022/11/22 07:01:17;;;;;;;3.10;3.00;;;;;;;2.61;100.00;99170.84;6063315;23;20042;-73
2022/11/22 07:03:44;;;;;;;3.60;3.40;;;;;;;2.57;100.00;99174.50;6044323;23;20432;-73
2022/11/22 07:06:12;;;;;;;3.35;3.22;;;;;;;2.36;100.00;99140.84;6065796;23;20087;-74
2022/11/22 07:08:40;;;;;;;10.10;3.42;;;;;;;2.33;100.00;99143.56;6030299;23;20056;-74
2022/11/22 07:11:10;;;;;;;2.90;2.80;;;;;;;1.90;100.00;99092.81;6066393;23;20193;-74
2022/11/22 07:13:37;;;;;;;3.20;3.10;;;;;;;2.38;100.00;99175.28;6039499;23;20038;-74
2022/11/22 07:16:06;;;;;;;3.05;2.95;;;;;;;2.36;100.00;99178.84;6054560;23;20030;-73
2022/11/22 07:18:33;;;;;;;3.58;3.45;;;;;;;2.35;100.00;99172.84;6045139;23;20092;-73
2022/11/22 07:21:01;;;;;;;3.25;3.15;;;;;;;2.50;100.00;99184.25;6060631;23;20026;-73
2022/11/22 07:23:35;;;;;;;3.03;2.92;;;;;;;2.47;100.00;99168.03;6027762;23;20026;-74
2022/11/22 07:26:01;;;;;;;3.08;2.97;;;;;;;2.38;100.00;99146.78;6067226;23;20025;-75
2022/11/22 07:28:27;;;;;;;3.35;3.05;;;;;;;2.06;100.00;99098.19;6058089;23;20460;-73
2022/11/22 07:30:59;;;;;;;3.78;3.58;;;;;;;2.23;100.00;99100.88;6032442;23;20433;-73
2022/11/22 07:33:26;;;;;;;3.10;3.00;;;;;;;2.30;100.00;99120.41;6073898;23;20032;-73
2022/11/22 07:35:52;;;;;;;3.10;3.00;;;;;;;2.69;100.00;99171.34;6060311;23;20034;-73
2022/11/22 07:38:19;;;;;;;3.50;3.30;;;;;;;2.23;100.00;99106.06;6047004;23;20010;-73
2022/11/22 07:40:45;;;;;;;3.38;3.17;;;;;;;2.68;100.00;99156.72;6037820;23;20536;-73
2022/11/22 07:43:12;;;;;;;3.25;3.15;;;;;;;3.02;100.00;99199.25;6045501;23;20516;-72
2022/11/22 07:45:38;;;;;;;3.72;3.53;;;;;;;3.05;100.00;99206.91;6049628;23;20030;-73
2022/11/22 07:48:05;;;;;;;3.20;3.10;;;;;;;1.85;100.00;98997.31;6044132;23;20405;-73
2022/11/22 07:50:33;;;;;;;3.60;3.38;;;;;;;3.14;100.00;99193.50;6066607;23;20026;-71
2022/11/22 07:53:00;;;;;;;3.20;3.10;;;;;;;3.04;100.00;99168.91;6027908;23;20536;-72
2022/11/22 07:55:26;;;;;;;3.97;3.67;;;;;;;3.17;100.00;99183.00;6066442;23;20497;-73
2022/11/22 07:57:53;;;;;;;3.10;3.00;;;;;;;2.81;100.00;99123.34;6033916;23;20457;-75
2022/11/22 08:00:20;;;;;;;3.60;3.25;;;;;;;2.53;100.00;99066.78;6057254;23;20457;-73
2022/11/22 08:02:46;;;;;;;3.25;3.15;;;;;;;3.25;100.00;99179.19;6045055;23;20032;-73
2022/11/22 08:05:13;;;;;;;3.30;3.20;;;;;;;3.33;100.00;99174.53;6076256;23;20385;-73
2022/11/22 08:07:47;;;;;;;3.17;3.08;;;;;;;3.00;100.00;99120.72;6043988;23;20026;-73
2022/11/22 08:10:15;;;;;;;3.38;3.17;;;;;;;2.71;100.00;99059.91;6043058;23;20505;-75
2022/11/22 08:12:41;;;;;;;3.10;3.00;;;;;;;3.48;100.00;99176.38;6078005;23;20014;-72
2022/11/22 08:15:10;;;;;;;3.65;3.45;;;;;;;3.47;100.00;99164.34;6070373;23;20153;-73
2022/11/22 08:17:37;;;;;;;3.33;3.20;;;;;;;3.05;100.00;99111.00;6059509;23;20026;-75
2022/11/22 08:20:05;;;;;;;3.20;3.10;;;;;;;3.17;100.00;99115.59;6065378;23;20030;-74
2022/11/22 08:22:31;;;;;;;4.00;3.80;;;;;;;2.95;100.00;99063.13;6058171;23;20047;-72
2022/11/22 08:24:58;;;;;;;3.85;3.65;;;;;;;2.88;100.00;99047.00;6069706;23;20040;-73
2022/11/22 08:27:24;;;;;;;3.40;3.30;;;;;;;3.84;100.00;99169.50;6060992;23;20035;-73
2022/11/22 08:29:50;;;;;;;3.10;3.00;;;;;;;2.98;100.00;99021.50;6041363;23;20274;-73
2022/11/22 08:32:17;;;;;;;2.90;2.80;;;;;;;3.75;100.00;99132.69;6046499;23;20516;-73
2022/11/22 08:34:43;;;;;;;3.20;3.10;;;;;;;3.54;100.00;99050.75;6077024;23;20010;-73
2022/11/22 08:37:12;;;;;;;3.20;3.10;;;;;;;4.51;100.00;99180.81;6067363;23;20351;-75
2022/11/22 08:39:39;;;;;;;3.45;3.33;;;;;;;4.40;100.00;99135.47;6048565;23;20477;-74
2022/11/22 08:42:06;;;;;;;3.22;3.13;;;;;;;4.18;100.00;99093.34;6068529;23;20026;-75
2022/11/22 08:44:32;;;;;;;3.70;3.60;;;;;;;4.83;100.00;99176.56;6047808;23;20092;-75
2022/11/22 08:46:59;;;;;;;3.13;3.03;;;;;;;4.91;100.00;99177.00;6070684;23;20495;-72
2022/11/22 08:49:25;;;;;;;3.20;3.10;;;;;;;4.30;100.00;99060.72;6060684;23;20376;-75
2022/11/22 08:51:51;;;;;;;3.83;3.63;;;;;;;4.82;100.00;99119.47;6052182;23;20026;-73
2022/11/22 08:54:18;;;;;;;3.97;3.33;;;;;;;5.21;100.00;99165.84;6083722;23;20057;-72
2022/11/22 08:56:44;;;;;;;4.05;3.85;;;;;;;5.28;100.00;99154.19;6059961;23;20072;-73
2022/11/22 08:59:10;;;;;;;3.63;3.42;;;;;;;5.21;100.00;99158.03;6054502;23;20022;-72
2022/11/22 09:01:37;;;;;;;3.30;3.20;;;;;;;5.35;100.00;99160.72;6067265;23;20046;-73
2022/11/22 09:04:03;;;;;;;3.40;3.30;;;;;;;5.18;100.00;99163.41;6050718;23;20093;-73
2022/11/22 09:06:30;;;;;;;3.55;3.45;;;;;;;4.67;100.00;99100.31;6068259;23;20106;-73
2022/11/22 09:09:16;;;;;;;3.95;3.65;;;;;;;4.88;100.00;99126.91;6055565;23;20238;-70
2022/11/22 09:12:03;;;;;;;3.20;3.10;;;;;;;5.14;100.00;99186.13;6046855;23;20262;-75
2022/11/22 09:14:30;;;;;;;3.40;3.30;;;;;;;5.02;100.00;99178.19;6058887;23;20038;-73
2022/11/22 09:16:56;;;;;;;3.47;3.30;;;;;;;4.97;100.00;99181.88;6064979;23;20101;-69
2022/11/22 09:19:22;;;;;;;3.50;3.40;;;;;;;4.88;100.00;99187.53;6043033;23;20034;-70
2022/11/22 09:21:49;;;;;;;3.65;3.45;;;;;;;4.54;100.00;99141.72;6070402;23;20010;-67
2022/11/22 09:24:15;;;;;;;3.10;3.00;;;;;;;4.84;100.00;99195.59;6042373;23;20105;-67
2022/11/22 09:26:42;;;;;;;3.45;3.35;;;;;;;4.64;100.00;99174.06;6065757;23;20018;-70
2022/11/22 09:29:08;;;;;;;3.30;3.20;;;;;;;4.83;100.00;99199.09;6046678;23;20018;-68
2022/11/22 09:31:34;;;;;;;3.42;3.28;;;;;;;4.60;100.00;99165.59;6039706;23;20347;-67
2022/11/22 09:34:01;;;;;;;3.33;3.22;;;;;;;4.81;100.00;99188.78;6049167;23;20056;-68
2022/11/22 09:36:27;;;;;;;3.75;3.35;;;;;;;5.04;100.00;99191.94;6064240;23;20374;-68
2022/11/22 09:38:57;;;;;;;3.13;3.03;;;;;;;5.22;100.00;99203.09;6040438;23;20105;-68
2022/11/22 09:41:50;;;;;;;3.35;3.17;;;;;;;5.23;100.00;99202.16;6037141;23;20077;-68
2022/11/22 09:44:38;;;;;;;6.47;3.10;;;;;;;5.59;100.00;99194.97;6070048;23;20022;-68
2022/11/22 09:47:26;;;;;;;3.40;3.30;;;;;;;5.84;100.00;99193.56;6036061;23;20069;-68
2022/11/22 09:50:23;;;;;;;3.38;3.28;;;;;;;6.05;100.00;99188.09;6067346;23;20405;-68
2022/11/22 09:58:27;;;;;;;6.03;3.70;;;;;;;6.17;100.00;99185.63;6175309;22;20748;-71
2022/11/22 10:01:02;;;;;;;3.30;3.20;;;;;;;5.95;100.00;99113.13;6172475;23;20463;-70
2022/11/22 10:03:41;;;;;;;3.42;3.22;;;;;;;6.19;100.00;99143.84;6139646;23;20021;-71
2022/11/22 10:06:16;;;;;;;3.55;3.38;;;;;;;6.41;100.00;99181.66;6139642;23;20561;-69
2022/11/22 10:08:53;;;;;;;4.80;4.15;;;;;;;5.73;100.00;99087.47;6120998;23;20022;-70
2022/11/22 10:11:34;;;;;;;3.40;3.30;;;;;;;5.08;100.00;99009.66;6157508;23;20037;-70
2022/11/22 10:14:14;;;;;;;;;;;;;;;6.11;100.00;99169.50;6119701;23;20021;-71
2022/11/22 10:16:51;;;;;;;5.70;3.40;;;;;;;6.09;100.00;99172.19;6153027;23;20705;-71
2022/11/22 10:19:28;;;;;;;4.00;3.78;;;;;;;5.91;100.00;99142.84;6079574;23;20025;-71
2022/11/22 10:21:55;;;;;;;3.80;3.60;;;;;;;6.09;100.00;99168.75;6117563;23;20045;-70
2022/11/22 10:24:21;;;;;;;4.03;3.72;;;;;;;6.15;100.00;99169.25;6097344;23;20079;-71
2022/11/22 10:26:48;;;;;;;3.47;3.38;;;;;;;6.29;100.00;99160.59;6118481;23;20479;-70
2022/11/22 10:29:27;;;;;;;3.72;3.53;;;;;;;6.43;100.00;99179.78;6094651;23;20511;-70
2022/11/22 10:32:27;;;;;;;4.05;3.85;;;;;;;6.62;100.00;99159.53;6127270;23;20048;-70
2022/11/22 10:35:12;;;;;;;3.47;3.38;;;;;;;6.81;100.00;99155.78;6088190;23;20643;-72
2022/11/22 10:38:04;;;;;;;3.92;3.60;;;;;;;6.92;100.00;99151.59;6110297;23;20026;-70
2022/11/22 10:40:42;;;;;;;7.72;3.75;;;;;;;6.99;100.00;99146.81;6093530;23;20032;-70
2022/11/22 10:43:36;;;;;;;4.57;4.25;;;;;;;6.90;100.00;99113.50;6092692;23;20545;-70
2022/11/22 10:46:12;;;;;;;3.70;3.50;;;;;;;7.14;100.00;99153.69;6086298;23;20026;-71
2022/11/22 10:49:06;;;;;;;4.30;4.10;;;;;;;7.25;99.93;99150.41;6087982;23;20022;-70
2022/11/22 10:51:50;;;;;;;4.10;3.60;;;;;;;7.15;99.32;99126.66;6081686;23;20481;-70
2022/11/22 10:54:23;;;;;;;3.70;3.60;;;;;;;7.32;98.49;99143.88;6114074;23;20141;-70
2022/11/22 10:57:06;;;;;;;4.10;3.75;;;;;;;7.39;98.00;99162.56;6159456;23;20459;-70
2022/11/22 10:59:57;;;;;;;4.35;4.13;;;;;;;7.42;98.36;99125.00;6161594;23;20062;-70
2022/11/22 11:03:01;;;;;;;4.60;4.30;;;;;;;7.28;97.66;99125.91;6176616;23;20030;-71
2022/11/22 11:05:44;;;;;;;3.90;3.75;;;;;;;6.85;97.99;99034.72;6166452;23;20020;-71
2022/11/22 11:08:39;;;;;;;3.90;3.70;;;;;;;7.31;97.41;99110.03;6160158;23;20057;-71
2022/11/22 11:11:26;;;;;;;3.90;3.70;;;;;;;7.15;96.77;99040.56;6150475;23;20016;-71
2022/11/22 11:14:01;;;;;;;3.80;3.60;;;;;;;7.48;95.96;99081.06;6155190;23;20025;-70
2022/11/22 11:16:32;;;;;;;3.50;3.40;;;;;;;7.62;95.81;99094.97;6154473;23;20527;-70
2022/11/22 11:19:15;;;;;;;4.25;4.05;;;;;;;7.59;94.83;99091.63;6187962;23;20408;-69
2022/11/22 11:21:42;;;;;;;3.70;3.60;;;;;;;7.57;95.42;99092.69;6154548;23;20028;-71
2022/11/22 11:24:12;;;;;;;3.67;3.58;;;;;;;7.58;96.33;99091.75;6158824;23;20317;-71
2022/11/22 11:26:41;;;;;;;3.90;3.70;;;;;;;7.57;96.53;99056.97;6190450;23;21128;-71
2022/11/22 11:29:17;;;;;;;4.10;3.90;;;;;;;7.96;95.58;99089.22;6129460;23;20234;-71
2022/11/22 11:31:49;;;;;;;4.45;4.15;;;;;;;7.81;94.31;99045.00;6165239;23;20046;-71
2022/11/22 11:34:25;;;;;;;3.83;3.73;;;;;;;8.11;93.84;99082.09;6179468;23;20023;-71
2022/11/22 11:36:55;;;;;;;7.95;4.30;;;;;;;7.34;92.58;98937.63;6150660;23;20311;-71
2022/11/22 11:39:26;;;;;;;4.45;4.22;;;;;;;7.87;92.21;98998.41;6149930;23;20051;-71
2022/11/22 11:41:54;;;;;;;4.50;4.30;;;;;;;8.18;90.44;99048.56;6179082;23;20466;-72
2022/11/22 11:44:35;;;;;;;5.88;5.40;;;;;;;8.45;90.60;99063.31;6122016;23;20099;-69
2022/11/22 11:47:04;;;;;;;4.47;4.28;;;;;;;8.08;89.44;99013.53;6180844;23;20012;-71
2022/11/22 11:49:33;;;;;;;4.03;3.83;;;;;;;8.33;88.18;99044.03;6160009;23;20025;-71
2022/11/22 11:52:08;;;;;;;4.35;4.15;;;;;;;8.37;87.55;99048.94;6136241;23;20077;-71
2022/11/22 11:54:42;;;;;;;8.38;5.82;;;;;;;8.44;87.37;99054.63;6178924;23;20534;-70
2022/11/22 11:57:24;;;;;;;4.30;4.10;;;;;;;8.09;87.05;99008.22;6151010;23;20021;-71
2022/11/22 11:59:51;;;;;;;4.28;4.07;;;;;;;8.33;86.61;99044.88;6181309;23;20445;-71
2022/11/22 12:02:26;;;;;;;4.60;4.38;;;;;;;8.32;87.42;99045.00;6159951;23;20058;-71
2022/11/22 12:04:58;;;;;;;4.78;4.57;;;;;;;8.03;87.96;98982.50;6186395;23;20215;-70